Time;durP1;ratioP1;P1;durP2;ratioP2;P2;SDS_P1;SDS_P2;PMS_P1;PMS_P2;Temp;Humidity;BMP_temperature;BMP_pressure;BME280_temperature;BME280_humidity;BME280_pressure;Samples;Min_cycle;Max_cycle;Signal;HPM_P1;HPM_P2
2021/04/01 00:00:12;;;;;;;12.07;8.03;;;13.90;95.00;;;;;;5045685;28;20191;-71
2021/04/01 00:02:38;;;;;;;13.90;8.07;;;13.90;94.80;;;;;;5050045;28;20234;-71
2021/04/01 00:05:06;;;;;;;12.53;9.53;;;13.90;94.80;;;;;;5055502;28;20418;-71
2021/04/01 00:07:32;;;;;;;8.97;7.13;;;13.90;94.90;;;;;;5038315;28;20179;-71
2021/04/01 00:09:58;;;;;;;10.17;8.33;;;13.80;95.30;;;;;;5014771;28;20446;-71
2021/04/01 00:12:23;;;;;;;13.97;8.83;;;13.60;95.60;;;;;;5014228;28;20798;-71
2021/04/01 00:14:49;;;;;;;13.60;8.60;;;13.50;95.90;;;;;;5013890;28;20411;-71
2021/04/01 00:17:15;;;;;;;12.17;8.27;;;13.50;96.20;;;;;;5013833;28;20167;-71
2021/04/01 00:19:40;;;;;;;8.47;7.63;;;13.50;96.30;;;;;;5013266;28;20402;-71
2021/04/01 00:22:06;;;;;;;8.73;7.83;;;13.50;96.40;;;;;;5028461;28;20270;-71
2021/04/01 00:24:32;;;;;;;13.67;8.30;;;13.60;96.10;;;;;;5033624;28;20261;-71
2021/04/01 00:26:58;;;;;;;10.30;7.27;;;13.70;95.90;;;;;;5032429;28;20213;-71
2021/04/01 00:29:23;;;;;;;10.97;8.40;;;13.70;95.70;;;;;;5032967;28;20535;-71
2021/04/01 00:31:49;;;;;;;10.20;8.90;;;13.70;95.60;;;;;;5032018;28;20206;-71
2021/04/01 00:34:15;;;;;;;9.30;8.30;;;13.60;95.70;;;;;;5033461;28;20199;-71
2021/04/01 00:36:40;;;;;;;10.70;7.93;;;13.50;95.80;;;;;;5034156;28;20413;-72
2021/04/01 00:39:06;;;;;;;9.20;7.87;;;13.50;96.10;;;;;;5034824;28;20206;-71
2021/04/01 00:41:31;;;;;;;11.33;8.40;;;13.40;96.30;;;;;;5033020;28;20267;-71
2021/04/01 00:44:02;;;;;;;10.37;8.37;;;13.30;96.60;;;;;;5033956;28;20571;-71
2021/04/01 00:46:28;;;;;;;8.23;7.40;;;13.30;96.70;;;;;;5034682;28;20532;-71
2021/04/01 00:48:53;;;;;;;8.13;7.37;;;13.40;96.80;;;;;;5031737;28;20422;-71
2021/04/01 00:51:19;;;;;;;10.80;8.40;;;13.40;96.80;;;;;;5033057;28;20698;-71
2021/04/01 00:53:44;;;;;;;11.47;7.70;;;13.40;96.70;;;;;;5031699;28;20211;-71
2021/04/01 00:56:10;;;;;;;9.50;7.40;;;13.30;96.90;;;;;;5033334;28;20183;-71
2021/04/01 00:58:36;;;;;;;9.10;8.00;;;13.30;97.00;;;;;;5033272;28;20178;-71
2021/04/01 01:01:20;;;;;;;9.90;8.40;;;13.30;97.00;;;;;;5033243;28;20479;-71
2021/04/01 01:03:46;;;;;;;13.20;8.23;;;13.40;97.00;;;;;;5031561;28;20175;-71
2021/04/01 01:06:12;;;;;;;10.70;7.40;;;13.50;96.80;;;;;;5036933;28;20729;-71
2021/04/01 01:08:37;;;;;;;9.73;7.90;;;13.50;96.60;;;;;;5036543;28;20600;-72
2021/04/01 01:11:03;;;;;;;11.67;8.30;;;13.50;96.50;;;;;;5036472;28;20211;-71
2021/04/01 01:13:29;;;;;;;9.30;7.53;;;13.50;96.30;;;;;;5036637;28;20297;-71
2021/04/01 01:15:55;;;;;;;10.30;7.93;;;13.50;96.20;;;;;;5035578;28;20511;-71
2021/04/01 01:18:20;;;;;;;11.60;8.30;;;13.40;96.10;;;;;;5036433;28;20171;-71
2021/04/01 01:20:46;;;;;;;10.23;7.97;;;13.40;96.30;;;;;;5026498;28;20538;-72
2021/04/01 01:23:12;;;;;;;9.80;8.60;;;13.40;96.60;;;;;;5017026;28;20582;-71
2021/04/01 01:25:37;;;;;;;10.73;9.30;;;13.40;96.90;;;;;;5018224;28;20260;-72
2021/04/01 01:28:04;;;;;;;8.80;7.90;;;13.40;96.90;;;;;;5017028;28;20425;-72
2021/04/01 01:30:32;;;;;;;11.57;8.43;;;13.50;96.80;;;;;;5016789;28;20241;-71
2021/04/01 01:33:02;;;;;;;8.80;7.90;;;13.50;96.60;;;;;;5017357;28;20474;-71
2021/04/01 01:35:31;;;;;;;11.33;8.50;;;13.50;96.50;;;;;;5026741;28;20914;-71
2021/04/01 01:37:59;;;;;;;9.17;8.27;;;13.40;96.50;;;;;;5036374;28;20440;-71
2021/04/01 01:40:26;;;;;;;9.93;8.93;;;13.40;96.50;;;;;;5036181;28;20862;-71
2021/04/01 01:42:55;;;;;;;10.47;8.50;;;13.40;96.60;;;;;;5036757;28;20410;-71
2021/04/01 01:45:21;;;;;;;10.77;8.03;;;13.40;96.50;;;;;;5034602;28;20438;-71
2021/04/01 01:47:47;;;;;;;9.87;7.57;;;13.40;96.40;;;;;;5037031;28;20437;-72
2021/04/01 01:50:20;;;;;;;11.20;8.50;;;13.40;96.40;;;;;;5036103;28;20433;-71
2021/04/01 01:52:45;;;;;;;10.73;9.00;;;13.40;96.30;;;;;;5035159;28;20457;-71
2021/04/01 01:55:12;;;;;;;9.97;8.07;;;13.40;96.30;;;;;;5036367;28;20730;-71
2021/04/01 01:57:38;;;;;;;14.10;9.47;;;13.50;96.60;;;;;;5034485;28;20644;-71
2021/04/01 02:00:17;;;;;;;9.40;8.50;;;13.50;96.30;;;;;;5035397;28;20978;-71
2021/04/01 02:02:53;;;;;;;11.70;8.50;;;13.50;96.30;;;;;;5036133;28;20494;-71
2021/04/01 02:05:19;;;;;;;10.60;9.13;;;13.50;96.40;;;;;;5036189;28;20409;-71
2021/04/01 02:07:45;;;;;;;13.23;8.20;;;13.40;96.30;;;;;;5032880;28;20984;-71
2021/04/01 02:10:11;;;;;;;15.10;9.17;;;13.30;96.40;;;;;;5035562;28;20433;-71
2021/04/01 02:12:41;;;;;;;9.77;8.73;;;13.30;96.50;;;;;;5036055;28;20207;-71
2021/04/01 02:15:10;;;;;;;9.93;8.87;;;13.30;96.70;;;;;;5036146;28;20484;-71
2021/04/01 02:17:36;;;;;;;11.63;8.90;;;13.30;96.70;;;;;;5034278;28;20759;-71
2021/04/01 02:20:02;;;;;;;11.13;9.00;;;13.30;96.70;;;;;;5035328;28;20903;-71
2021/04/01 02:22:28;;;;;;;9.63;8.63;;;13.30;96.60;;;;;;5035618;28;20418;-71
2021/04/01 02:24:53;;;;;;;8.90;8.10;;;13.30;96.60;;;;;;5035709;28;20736;-71
2021/04/01 02:27:19;;;;;;;9.70;8.13;;;13.30;96.60;;;;;;5035068;28;20179;-71
2021/04/01 02:29:44;;;;;;;11.48;9.20;;;13.30;96.60;;;;;;5033452;28;20429;-71
2021/04/01 02:32:10;;;;;;;11.50;8.83;;;13.30;96.60;;;;;;5035356;28;20648;-71
2021/04/01 02:34:35;;;;;;;13.30;9.10;;;13.30;96.60;;;;;;5035070;28;20624;-71
2021/04/01 02:37:01;;;;;;;10.60;9.50;;;13.30;96.50;;;;;;5035134;28;20660;-71
2021/04/01 02:39:26;;;;;;;15.30;8.97;;;13.20;96.50;;;;;;5033029;28;20257;-72
2021/04/01 02:41:52;;;;;;;12.83;8.90;;;13.10;96.50;;;;;;5035197;28;20203;-71
2021/04/01 02:44:17;;;;;;;12.40;8.80;;;13.00;96.70;;;;;;5034954;28;20175;-71
2021/04/01 02:46:43;;;;;;;13.47;9.50;;;13.00;96.90;;;;;;5035062;28;20178;-71
2021/04/01 02:49:08;;;;;;;11.17;8.40;;;13.00;97.10;;;;;;5033468;28;20201;-71
2021/04/01 02:51:34;;;;;;;9.77;8.40;;;13.00;97.20;;;;;;5046955;28;20206;-72
2021/04/01 02:53:59;;;;;;;11.57;8.47;;;13.00;97.30;;;;;;5035626;28;20229;-71
2021/04/01 02:56:25;;;;;;;14.10;9.43;;;13.00;97.30;;;;;;5035417;28;20206;-71
2021/04/01 02:58:50;;;;;;;12.13;9.47;;;13.00;97.20;;;;;;5034799;28;20531;-71
2021/04/01 03:01:16;;;;;;;11.97;8.87;;;13.00;97.20;;;;;;5032939;28;20277;-71
2021/04/01 03:03:44;;;;;;;10.50;8.80;;;13.10;97.10;;;;;;5035093;28;20628;-71
2021/04/01 03:06:10;;;;;;;9.53;8.53;;;13.10;97.00;;;;;;5034076;28;20190;-71
2021/04/01 03:08:36;;;;;;;13.23;9.43;;;13.10;97.00;;;;;;5033248;28;20417;-71
2021/04/01 03:11:02;;;;;;;11.60;8.80;;;13.00;97.00;;;;;;5033075;28;20187;-71
2021/04/01 03:13:28;;;;;;;11.13;8.50;;;13.00;97.10;;;;;;5035804;28;20286;-71
2021/04/01 03:15:53;;;;;;;12.53;9.30;;;13.00;97.30;;;;;;5036983;28;20880;-71
2021/04/01 03:18:20;;;;;;;10.10;8.87;;;13.00;97.40;;;;;;5041949;28;20661;-71
2021/04/01 03:20:47;;;;;;;12.27;9.67;;;12.90;97.70;;;;;;5033979;28;20222;-71
2021/04/01 03:23:12;;;;;;;11.03;8.50;;;12.80;97.90;;;;;;5034811;28;20756;-71
2021/04/01 03:25:38;;;;;;;15.53;9.37;;;12.80;98.00;;;;;;5036137;28;20420;-71
2021/04/01 03:28:04;;;;;;;11.90;9.77;;;12.80;98.10;;;;;;5035410;28;20579;-71
2021/04/01 03:30:30;;;;;;;12.80;9.73;;;12.90;98.00;;;;;;5034063;28;20430;-72
2021/04/01 03:32:55;;;;;;;12.60;9.37;;;12.90;97.80;;;;;;5032540;28;20466;-71
2021/04/01 03:35:23;;;;;;;10.70;8.87;;;12.90;97.70;;;;;;5034189;28;20237;-71
2021/04/01 03:37:52;;;;;;;10.67;9.07;;;13.00;97.80;;;;;;5034252;28;20193;-72
2021/04/01 03:40:17;;;;;;;12.30;10.37;;;13.00;97.70;;;;;;5033947;28;20457;-71
2021/04/01 03:42:43;;;;;;;12.37;10.40;;;13.10;97.70;;;;;;5032571;28;20538;-71
2021/04/01 03:45:11;;;;;;;12.17;10.70;;;13.00;97.60;;;;;;5033981;28;20545;-71
2021/04/01 03:47:37;;;;;;;10.17;9.10;;;13.00;97.60;;;;;;5034090;28;20175;-71
2021/04/01 03:50:05;;;;;;;12.60;11.30;;;13.00;97.70;;;;;;5033602;28;20433;-71
2021/04/01 03:52:30;;;;;;;12.20;10.47;;;13.00;97.70;;;;;;5033012;28;20484;-71
2021/04/01 03:55:00;;;;;;;19.10;10.80;;;13.00;97.70;;;;;;5033767;28;20442;-71
2021/04/01 03:57:26;;;;;;;12.17;9.93;;;13.10;97.60;;;;;;5034220;28;20178;-71
2021/04/01 04:00:15;;;;;;;10.97;9.83;;;13.10;97.50;;;;;;5033580;28;20410;-71
2021/04/01 04:02:52;;;;;;;12.73;10.00;;;13.10;97.40;;;;;;5033438;28;20677;-71
2021/04/01 04:16:09;;;;;;;11.23;10.10;;;13.20;97.30;;;;;;4991140;28;20929;-71
2021/04/01 04:18:35;;;;;;;13.80;11.17;;;13.20;97.30;;;;;;4975519;28;20422;-70
2021/04/01 04:21:00;;;;;;;14.27;10.27;;;13.20;97.20;;;;;;4991939;28;20419;-71
2021/04/01 04:23:26;;;;;;;10.50;9.40;;;13.20;97.20;;;;;;4992266;28;20173;-71
2021/04/01 04:25:54;;;;;;;14.80;9.77;;;13.20;97.30;;;;;;4990132;28;20672;-71
2021/04/01 04:28:41;;;;;;;12.20;9.90;;;13.20;97.30;;;;;;4991895;28;20176;-71
2021/04/01 04:31:06;;;;;;;17.50;10.30;;;13.20;97.40;;;;;;4991718;28;20436;-71
2021/04/01 04:33:32;;;;;;;19.00;11.03;;;13.20;97.50;;;;;;4991961;28;21037;-71
2021/04/01 04:35:58;;;;;;;13.10;10.40;;;13.20;97.60;;;;;;4990702;28;20180;-71
2021/04/01 04:38:25;;;;;;;13.90;10.83;;;13.20;97.60;;;;;;4992597;28;20184;-72
2021/04/01 04:40:54;;;;;;;11.93;10.33;;;13.20;97.60;;;;;;4995436;28;20821;-71
2021/04/01 04:43:20;;;;;;;11.63;10.43;;;13.20;97.60;;;;;;4996117;28;20442;-71
2021/04/01 04:45:46;;;;;;;11.43;9.80;;;13.20;97.60;;;;;;4995244;28;20415;-71
2021/04/01 04:48:11;;;;;;;11.70;9.90;;;13.20;97.60;;;;;;4995351;28;20187;-71
2021/04/01 04:50:37;;;;;;;15.00;10.83;;;13.20;97.70;;;;;;5020112;28;20210;-71
2021/04/01 04:53:02;;;;;;;11.10;10.00;;;13.20;97.70;;;;;;5037725;28;20649;-72
2021/04/01 04:55:28;;;;;;;16.10;11.00;;;13.20;97.60;;;;;;5038335;28;20170;-70
2021/04/01 04:58:05;;;;;;;12.47;10.93;;;13.10;97.50;;;;;;5035851;28;20175;-71
2021/04/01 05:05:56;;;;;;;10.83;9.60;;;13.00;97.80;;;;;;5037830;28;20431;-71
2021/04/01 05:08:22;;;;;;;11.30;9.87;;;13.00;97.90;;;;;;5035228;28;20503;-71
2021/04/01 05:10:49;;;;;;;15.07;10.57;;;13.00;97.90;;;;;;5036755;28;20194;-71
2021/04/01 05:13:15;;;;;;;14.10;9.70;;;13.00;97.90;;;;;;5036813;28;20579;-71
2021/04/01 05:15:50;;;;;;;11.67;10.47;;;13.10;98.00;;;;;;5036780;28;20398;-71
2021/04/01 05:18:23;;;;;;;13.83;10.97;;;13.00;98.00;;;;;;5034795;28;20643;-71
2021/04/01 05:20:51;;;;;;;16.20;11.53;;;13.00;98.10;;;;;;5037081;28;20414;-71
2021/04/01 05:29:06;;;;;;;13.70;10.67;;;13.10;98.30;;;;;;4992986;28;20284;-71
2021/04/01 05:31:35;;;;;;;12.47;10.83;;;13.10;98.40;;;;;;4994926;28;20536;-71
2021/04/01 05:34:01;;;;;;;14.53;12.53;;;13.00;98.40;;;;;;4995080;28;20895;-71
2021/04/01 05:36:29;;;;;;;18.70;11.90;;;13.00;98.40;;;;;;4977454;28;20460;-71
2021/04/01 05:38:57;;;;;;;15.70;10.93;;;13.00;98.40;;;;;;4975133;28;20654;-72
2021/04/01 05:41:33;;;;;;;12.70;11.13;;;12.90;98.40;;;;;;4978246;28;20476;-72
2021/04/01 05:46:36;;;;;;;18.97;11.33;;;12.90;98.50;;;;;;4978551;28;20574;-72
2021/04/01 06:02:54;;;;;;;17.73;11.30;;;12.80;99.20;;;;;;4983923;28;20510;-71
2021/04/01 06:05:25;;;;;;;18.57;12.33;;;12.70;99.20;;;;;;5030289;28;20414;-71
2021/04/01 06:07:54;;;;;;;17.23;12.67;;;12.60;99.20;;;;;;5021403;28;20614;-72
2021/04/01 06:10:21;;;;;;;14.53;11.93;;;12.60;99.40;;;;;;5024618;28;20438;-72
2021/04/01 06:12:47;;;;;;;19.03;14.50;;;12.60;99.40;;;;;;5016548;28;20469;-72
2021/04/01 06:15:13;;;;;;;17.03;14.13;;;12.70;99.50;;;;;;5024031;28;20414;-72
2021/04/01 06:17:48;;;;;;;20.50;14.57;;;12.70;99.50;;;;;;5029761;28;20480;-72
2021/04/01 06:20:15;;;;;;;21.57;13.00;;;12.70;99.50;;;;;;5015990;28;20293;-72
2021/04/01 06:22:43;;;;;;;21.70;13.47;;;12.70;99.50;;;;;;5016651;28;20418;-72
2021/04/01 06:25:11;;;;;;;18.57;13.60;;;12.80;99.50;;;;;;5016477;28;20493;-71
2021/04/01 06:27:42;;;;;;;18.73;13.37;;;12.80;99.50;;;;;;5016577;28;20488;-72
2021/04/01 06:32:41;;;;;;;14.67;12.53;;;12.80;99.40;;;;;;5027032;28;20457;-72
2021/04/01 06:35:14;;;;;;;16.00;12.80;;;12.90;99.30;;;;;;5043478;28;20386;-72
2021/04/01 06:38:12;;;;;;;19.70;15.10;;;12.90;99.20;;;;;;5036000;28;20406;-72
2021/04/01 06:40:45;;;;;;;16.50;12.87;;;12.90;99.10;;;;;;5001552;28;20473;-71
2021/04/01 06:43:18;;;;;;;17.80;12.93;;;13.00;98.90;;;;;;5015352;28;20896;-72
2021/04/01 06:45:55;;;;;;;16.50;14.67;;;13.00;98.90;;;;;;5014941;28;20457;-72
2021/04/01 06:48:24;;;;;;;18.17;13.17;;;13.10;98.80;;;;;;5014535;28;20935;-72
2021/04/01 06:50:58;;;;;;;18.53;13.77;;;13.20;98.70;;;;;;5015817;28;20450;-72
2021/04/01 06:53:38;;;;;;;20.57;15.20;;;13.20;98.60;;;;;;5013316;28;20561;-72
2021/04/01 06:56:19;;;;;;;20.20;15.03;;;13.20;98.50;;;;;;5014799;28;20414;-72
2021/04/01 06:59:04;;;;;;;16.07;14.23;;;13.30;98.30;;;;;;5013099;28;20476;-72
2021/04/01 07:01:43;;;;;;;22.13;16.60;;;13.30;98.30;;;;;;5015425;28;20475;-72
2021/04/01 07:04:11;;;;;;;25.13;15.20;;;13.40;98.20;;;;;;5014454;28;20482;-72
2021/04/01 07:06:42;;;;;;;19.00;15.20;;;13.50;98.20;;;;;;5006624;28;20988;-72
2021/04/01 07:09:33;;;;;;;21.10;14.80;;;13.50;98.00;;;;;;5013265;28;20466;-72
2021/04/01 07:12:09;;;;;;;21.67;15.73;;;13.60;98.00;;;;;;5012086;28;20462;-72
2021/04/01 07:14:38;;;;;;;19.03;15.17;;;13.60;97.90;;;;;;5013180;28;20418;-72
2021/04/01 07:17:16;;;;;;;20.97;14.97;;;13.70;97.90;;;;;;5014937;28;20407;-71
2021/04/01 07:47:30;;;;;;;28.00;19.43;;;14.70;96.00;;;;;;5011758;28;20550;-71
2021/04/01 07:49:56;;;;;;;29.47;19.10;;;14.80;95.90;;;;;;5023441;28;20441;-71
2021/04/01 07:52:27;;;;;;;26.03;19.40;;;14.80;95.80;;;;;;5026120;28;20461;-72
2021/04/01 07:55:22;;;;;;;24.43;18.77;;;14.90;95.70;;;;;;5015895;28;20410;-72
2021/04/01 07:58:29;;;;;;;29.80;19.53;;;15.00;95.60;;;;;;5016936;28;20441;-71
2021/04/01 08:06:28;;;;;;;29.90;21.60;;;15.30;95.30;;;;;;5025964;28;20505;-71
2021/04/01 08:09:02;;;;;;;33.10;23.63;;;15.40;95.00;;;;;;5014727;28;20457;-72
2021/04/01 08:11:32;;;;;;;36.90;26.37;;;15.50;94.90;;;;;;5028554;28;20461;-71
2021/04/01 08:14:21;;;;;;;40.13;27.77;;;15.60;94.60;;;;;;5013319;28;20955;-72
2021/04/01 08:16:58;;;;;;;42.40;28.27;;;15.70;94.10;;;;;;5005407;28;20476;-71
2021/04/01 08:19:26;;;;;;;47.73;27.80;;;15.80;93.50;;;;;;5026127;28;20426;-72
2021/04/01 08:21:53;;;;;;;45.70;28.87;;;16.00;93.10;;;;;;5034515;28;20941;-71
2021/04/01 08:24:42;;;;;;;48.17;28.47;;;16.10;92.70;;;;;;5019814;28;20489;-71
2021/04/01 08:35:14;;;;;;;47.00;29.10;;;16.50;91.80;;;;;;5024169;28;20714;-72
2021/04/01 08:38:25;;;;;;;49.10;31.33;;;16.60;91.50;;;;;;5022451;28;20421;-72
2021/04/01 08:40:32;;;;;;;48.93;28.83;;;16.70;91.10;;;;;;5009395;28;20465;-72
2021/04/01 08:43:07;;;;;;;44.70;27.30;;;16.80;90.80;;;;;;5026603;28;20840;-72
2021/04/01 08:45:49;;;;;;;46.50;29.00;;;16.90;90.30;;;;;;5016025;28;20919;-72
2021/04/01 08:48:21;;;;;;;44.57;26.93;;;17.00;90.00;;;;;;5011741;28;20500;-72
2021/04/01 08:51:07;;;;;;;50.40;28.50;;;17.10;89.50;;;;;;5010082;28;20457;-73
2021/04/01 08:54:01;;;;;;;54.90;29.97;;;17.20;88.90;;;;;;5021570;28;20456;-72
2021/04/01 08:56:27;;;;;;;50.50;29.43;;;17.30;88.30;;;;;;5033461;28;20442;-72
2021/04/01 08:59:13;;;;;;;51.27;28.90;;;17.30;88.00;;;;;;5035982;28;20496;-72
2021/04/01 09:01:41;;;;;;;49.50;28.73;;;17.40;87.80;;;;;;5016494;28;21111;-72
2021/04/01 09:04:08;;;;;;;49.30;29.00;;;17.60;87.50;;;;;;5016477;28;20441;-71
2021/04/01 09:06:40;;;;;;;51.60;29.30;;;17.60;86.80;;;;;;5020722;28;20419;-72
2021/04/01 09:09:14;;;;;;;48.57;28.93;;;17.80;86.60;;;;;;5026707;28;20421;-72
2021/04/01 09:11:54;;;;;;;48.20;28.10;;;17.90;86.10;;;;;;5024132;28;20432;-72
2021/04/01 09:14:30;;;;;;;51.53;29.47;;;18.00;85.20;;;;;;5023248;28;20489;-72
2021/04/01 09:17:12;;;;;;;48.40;29.03;;;18.10;84.90;;;;;;5019960;28;20438;-72
2021/04/01 09:19:40;;;;;;;48.60;29.27;;;18.20;83.80;;;;;;5024249;28;20410;-73
2021/04/01 09:22:26;;;;;;;54.13;30.80;;;18.30;83.60;;;;;;5024235;28;20813;-71
2021/04/01 09:25:00;;;;;;;52.13;29.10;;;18.40;82.90;;;;;;5016433;28;20421;-72
2021/04/01 09:27:26;;;;;;;47.07;28.93;;;18.40;80.60;;;;;;5020833;28;20426;-72
2021/04/01 09:30:04;;;;;;;48.20;28.30;;;18.50;78.60;;;;;;5035277;28;20513;-72
2021/04/01 09:32:31;;;;;;;49.00;29.50;;;18.50;78.50;;;;;;5030912;28;20463;-72
2021/04/01 09:34:59;;;;;;;49.17;26.40;;;18.60;76.40;;;;;;5025327;28;21046;-72
2021/04/01 09:37:25;;;;;;;46.20;26.93;;;18.70;76.50;;;;;;5024525;28;20921;-72
2021/04/01 09:39:53;;;;;;;45.60;27.33;;;18.70;76.10;;;;;;5017836;28;20525;-72
2021/04/01 09:42:19;;;;;;;52.40;28.63;;;18.80;76.50;;;;;;5024173;28;20170;-72
2021/04/01 09:44:54;;;;;;;47.77;27.37;;;18.80;75.50;;;;;;5024250;28;20545;-72
2021/04/01 09:47:28;;;;;;;40.83;25.47;;;18.80;75.20;;;;;;5007354;28;20246;-72
2021/04/01 09:50:03;;;;;;;49.93;28.20;;;18.90;75.40;;;;;;5026533;28;20409;-73
2021/04/01 09:52:29;;;;;;;49.05;31.05;;;19.00;75.50;;;;;;5018298;28;20431;-72
2021/04/01 09:54:58;;;;;;;48.73;27.67;;;19.10;73.80;;;;;;5037900;28;20186;-73
2021/04/01 09:57:38;;;;;;;52.17;28.20;;;19.10;73.90;;;;;;5018443;28;20487;-73
2021/04/01 10:00:18;;;;;;;46.73;27.77;;;19.20;75.40;;;;;;4998050;28;20435;-73
2021/04/01 10:02:52;;;;;;;51.67;29.00;;;19.30;74.50;;;;;;4995071;28;20446;-72
2021/04/01 10:05:21;;;;;;;42.77;25.33;;;19.30;74.00;;;;;;5004680;28;20412;-73
2021/04/01 10:07:58;;;;;;;49.80;28.70;;;19.50;74.20;;;;;;5011268;28;20529;-73
2021/04/01 10:10:34;;;;;;;51.13;28.90;;;19.40;72.80;;;;;;5009818;28;20450;-72
2021/04/01 10:13:00;;;;;;;48.80;27.13;;;19.40;72.90;;;;;;5000970;28;20469;-73
2021/04/01 10:15:30;;;;;;;41.70;26.17;;;19.40;74.50;;;;;;5012018;28;20908;-73
2021/04/01 10:17:58;;;;;;;50.93;27.47;;;19.50;74.00;;;;;;4999425;28;20208;-73
2021/04/01 10:20:25;;;;;;;45.83;26.37;;;19.60;71.60;;;;;;5000989;28;20451;-73
2021/04/01 10:22:51;;;;;;;48.73;26.80;;;19.60;71.30;;;;;;5007243;28;20477;-73
2021/04/01 10:25:25;;;;;;;43.73;26.90;;;19.60;70.80;;;;;;4994349;28;20931;-73
2021/04/01 10:30:22;;;;;;;44.90;27.70;;;19.70;70.60;;;;;;5012449;28;20414;-73
2021/04/01 10:32:47;;;;;;;41.10;24.70;;;19.90;71.20;;;;;;5003762;28;20476;-72
2021/04/01 10:35:15;;;;;;;49.53;27.10;;;20.00;72.30;;;;;;5011764;28;20411;-73
2021/04/01 10:37:49;;;;;;;42.77;24.03;;;20.10;71.00;;;;;;5010721;28;20175;-72
2021/04/01 10:40:17;;;;;;;46.50;25.77;;;20.30;70.80;;;;;;5021288;28;20450;-72
2021/04/01 10:42:48;;;;;;;47.47;28.52;;;20.30;70.80;;;;;;5014042;28;20762;-72
2021/04/01 10:45:20;;;;;;;46.97;27.10;;;20.30;69.00;;;;;;5015755;28;20566;-73
2021/04/01 10:47:58;;;;;;;46.88;27.58;;;20.40;69.50;;;;;;5019751;28;20428;-74
2021/04/01 10:50:28;;;;;;;37.73;24.60;;;20.40;70.00;;;;;;5034420;28;20221;-73
2021/04/01 10:52:57;;;;;;;40.37;23.70;;;20.50;70.30;;;;;;5013507;28;20513;-72
2021/04/01 10:55:28;;;;;;;44.57;26.53;;;20.60;70.00;;;;;;5013652;28;20438;-72
2021/04/01 10:58:09;;;;;;;46.80;26.07;;;20.50;68.10;;;;;;5015536;28;20407;-72
2021/04/01 11:00:36;;;;;;;50.73;27.23;;;20.40;68.40;;;;;;5013724;28;20521;-72
2021/04/01 11:03:06;;;;;;;42.30;25.40;;;20.40;68.50;;;;;;5015136;28;20414;-72
2021/04/01 11:05:35;;;;;;;40.47;25.40;;;20.40;68.90;;;;;;5015154;28;20411;-72
2021/04/01 11:08:06;;;;;;;41.03;25.87;;;20.40;68.20;;;;;;5015158;28;20446;-72
2021/04/01 11:10:33;;;;;;;39.17;23.47;;;20.40;68.10;;;;;;5031953;28;20464;-71
2021/04/01 11:13:01;;;;;;;42.77;25.03;;;20.40;69.20;;;;;;5034668;28;20555;-71
2021/04/01 11:15:32;;;;;;;41.53;24.40;;;20.50;68.20;;;;;;5034776;28;20460;-72
2021/04/01 11:18:19;;;;;;;41.47;23.93;;;20.50;68.10;;;;;;5034573;28;20735;-72
2021/04/01 11:20:51;;;;;;;40.30;23.60;;;20.60;67.60;;;;;;5032772;28;20441;-71
2021/04/01 11:23:22;;;;;;;33.63;21.93;;;20.70;66.80;;;;;;5034798;28;20464;-72
2021/04/01 11:25:50;;;;;;;42.67;24.30;;;20.60;66.80;;;;;;5034532;28;20448;-72
2021/04/01 11:28:16;;;;;;;40.30;22.63;;;20.60;66.90;;;;;;5034155;28;20421;-73
2021/04/01 11:30:53;;;;;;;44.10;25.73;;;20.60;66.10;;;;;;5034333;28;20520;-72
2021/04/01 11:33:22;;;;;;;44.80;23.77;;;20.60;66.50;;;;;;5035302;28;20530;-73
2021/04/01 11:35:58;;;;;;;44.20;25.83;;;20.60;67.50;;;;;;5038758;28;20404;-72
2021/04/01 11:38:25;;;;;;;43.43;24.77;;;20.50;67.50;;;;;;5035650;28;20410;-72
2021/04/01 11:40:59;;;;;;;42.77;24.10;;;20.50;66.80;;;;;;5032121;28;20453;-72
2021/04/01 11:43:27;;;;;;;41.23;24.97;;;20.50;67.00;;;;;;5034369;28;20406;-72
2021/04/01 11:45:53;;;;;;;43.93;24.40;;;20.60;67.10;;;;;;5034431;28;20419;-72
2021/04/01 11:48:19;;;;;;;42.97;25.53;;;20.60;67.20;;;;;;5033269;28;20784;-72
2021/04/01 11:50:45;;;;;;;41.53;24.33;;;20.50;67.40;;;;;;5033976;28;20434;-72
2021/04/01 11:53:11;;;;;;;49.83;27.00;;;20.50;67.20;;;;;;5025617;28;20454;-72
2021/04/01 11:55:47;;;;;;;47.73;26.70;;;20.50;68.30;;;;;;5014491;28;20413;-73
2021/04/01 11:58:12;;;;;;;45.53;26.23;;;20.40;68.40;;;;;;5014485;28;20406;-72
2021/04/01 12:00:38;;;;;;;46.93;26.27;;;20.30;68.90;;;;;;5015142;28;20461;-72
2021/04/01 12:03:07;;;;;;;45.20;26.00;;;20.30;69.30;;;;;;5013891;28;20226;-72
2021/04/01 12:05:45;;;;;;;46.30;26.40;;;20.30;69.60;;;;;;5014043;28;20271;-72
2021/04/01 12:08:11;;;;;;;49.57;26.80;;;20.30;69.90;;;;;;4994472;28;20414;-72
2021/04/01 12:10:38;;;;;;;50.40;27.47;;;20.30;70.50;;;;;;5007235;28;20519;-72
2021/04/01 12:13:04;;;;;;;49.53;29.33;;;20.50;70.70;;;;;;5033780;28;20641;-72
2021/04/01 12:15:40;;;;;;;57.40;30.10;;;20.40;70.50;;;;;;5034142;28;20822;-73
2021/04/01 12:18:08;;;;;;;51.83;27.97;;;20.40;71.00;;;;;;5033494;28;20401;-73
2021/04/01 12:20:35;;;;;;;46.20;27.03;;;20.30;71.20;;;;;;5032167;28;20429;-73
2021/04/01 12:23:12;;;;;;;47.43;26.00;;;20.30;71.10;;;;;;5032106;28;20464;-72
2021/04/01 12:25:39;;;;;;;44.07;26.90;;;20.40;71.40;;;;;;5033823;28;20931;-72
2021/04/01 12:28:05;;;;;;;50.47;27.10;;;20.50;70.70;;;;;;5020777;28;20437;-72
2021/04/01 12:30:32;;;;;;;45.60;26.60;;;20.40;71.00;;;;;;5013685;28;20431;-72
2021/04/01 12:33:06;;;;;;;44.90;27.20;;;20.50;71.20;;;;;;5025838;28;20465;-72
2021/04/01 12:35:32;;;;;;;49.47;30.27;;;20.40;70.60;;;;;;5035441;28;20875;-72
2021/04/01 12:38:04;;;;;;;51.90;29.30;;;20.30;70.90;;;;;;5034986;28;20412;-72
2021/04/01 12:40:38;;;;;;;48.67;27.63;;;20.20;71.10;;;;;;5035712;28;20445;-72
2021/04/01 12:43:09;;;;;;;41.67;27.07;;;20.20;71.30;;;;;;5033954;28;20421;-72
2021/04/01 12:45:37;;;;;;;42.03;27.67;;;20.20;71.30;;;;;;5037453;28;20409;-72
2021/04/01 12:48:07;;;;;;;47.23;28.50;;;20.20;71.50;;;;;;5039301;28;20490;-72
2021/04/01 12:50:35;;;;;;;49.97;28.27;;;20.20;72.30;;;;;;5041490;28;20436;-72
2021/04/01 12:53:01;;;;;;;42.33;28.30;;;20.20;72.90;;;;;;5040584;28;20449;-72
2021/04/01 12:55:56;;;;;;;47.40;31.10;;;20.10;72.60;;;;;;5015494;28;20413;-72
2021/04/01 12:58:28;;;;;;;45.37;30.20;;;20.00;73.10;;;;;;5016153;28;20550;-72
2021/04/01 13:00:59;;;;;;;51.20;33.90;;;20.00;74.00;;;;;;5018775;28;20438;-72
2021/04/01 13:03:24;;;;;;;47.75;32.35;;;19.90;74.40;;;;;;5020968;28;20415;-73
2021/04/01 13:05:55;;;;;;;53.40;33.33;;;19.90;74.70;;;;;;5037168;28;20643;-72
2021/04/01 13:08:35;;;;;;;46.77;32.13;;;19.90;75.40;;;;;;5036940;28;20171;-72
2021/04/01 13:11:00;;;;;;;53.30;34.70;;;19.80;75.50;;;;;;5037536;28;20445;-72
2021/04/01 13:13:27;;;;;;;50.80;33.70;;;19.80;76.00;;;;;;5037851;28;20549;-72
2021/04/01 13:15:57;;;;;;;52.70;36.60;;;19.90;76.40;;;;;;5026751;28;20227;-72
2021/04/01 13:18:23;;;;;;;53.53;35.47;;;19.90;76.60;;;;;;5020338;28;20426;-72
2021/04/01 13:20:48;;;;;;;51.20;34.80;;;19.90;77.20;;;;;;5016990;28;20422;-72
2021/04/01 13:26:19;;;;;;;57.77;41.67;;;20.00;77.30;;;;;;4974140;28;20235;-72
2021/04/01 13:28:45;;;;;;;60.80;38.70;;;20.00;77.80;;;;;;4975473;28;20519;-72
2021/04/01 13:31:25;;;;;;;64.13;42.60;;;19.90;78.60;;;;;;4975684;28;20205;-72
2021/04/01 13:34:02;;;;;;;69.30;45.80;;;19.90;78.80;;;;;;4975769;28;20479;-72
2021/04/01 13:36:35;;;;;;;60.43;40.87;;;19.90;79.10;;;;;;4974062;28;20436;-72
2021/04/01 13:39:04;;;;;;;70.80;46.03;;;19.90;78.90;;;;;;4975299;28;20413;-73
2021/04/01 13:41:42;;;;;;;63.20;42.10;;;19.90;78.10;;;;;;4975331;28;20785;-72
2021/04/01 13:44:09;;;;;;;73.80;47.60;;;19.90;78.10;;;;;;4974943;28;20440;-72
2021/04/01 13:46:36;;;;;;;69.10;47.10;;;20.00;77.80;;;;;;4973145;28;20559;-72
2021/04/01 13:49:02;;;;;;;60.17;42.60;;;19.90;77.30;;;;;;4975013;28;20532;-72
2021/04/01 13:51:30;;;;;;;62.43;42.70;;;19.70;76.90;;;;;;4975255;28;20471;-72
2021/04/01 13:54:16;;;;;;;61.77;43.40;;;19.60;77.40;;;;;;4974908;28;20464;-72
2021/04/01 13:56:54;;;;;;;57.90;41.43;;;19.60;78.40;;;;;;4989970;28;20407;-73
2021/04/01 13:59:27;;;;;;;56.10;40.27;;;19.70;77.80;;;;;;4996204;28;20527;-73
2021/04/01 14:10:14;;;;;;;41.50;29.13;;;19.40;76.90;;;;;;4995718;28;20426;-72
2021/04/01 14:12:41;;;;;;;36.60;27.43;;;19.50;76.40;;;;;;4995664;28;20930;-72
2021/04/01 14:15:09;;;;;;;35.27;25.00;;;19.60;76.20;;;;;;4996882;28;20175;-72
2021/04/01 14:17:37;;;;;;;34.23;25.57;;;19.80;74.90;;;;;;4998108;28;20763;-71
2021/04/01 14:20:08;;;;;;;33.73;23.63;;;19.80;75.20;;;;;;5016678;28;20442;-72